This is the latest recevied weather packets stored in our database for station/object KI5RAB. If no packets are shown the sender has not sent any weather packets the latest 1 day(s).
| Time | Temp. | Humidity | Pressure | Rain* | Wind** | Luminosity | Snow |
|---|---|---|---|---|---|---|---|
| 1778031621 | 28.33° C | 75% | 1009.5 hPa | 0 mm | - | 0 W/m² | - |
| 1778031319 | 28.33° C | 75% | 1009.5 hPa | 0 mm | - | 0 W/m² | - |
| 1778030711 | 28.89° C | 74% | 1009.2 hPa | 0 mm | - | 0 W/m² | - |
| 1778030409 | 28.89° C | 74% | 1009.1 hPa | 0 mm | - | 0 W/m² | - |
| 1778030106 | 28.89° C | 73% | 1009.2 hPa | 0 mm | - | 1 W/m² | - |
| 1778029502 | 28.89° C | 73% | 1008.9 hPa | 0 mm | - | 3 W/m² | - |
| 1778029197 | 28.89° C | 72% | 1008.9 hPa | 0 mm | - | 7 W/m² | - |
| 1778028895 | 29.44° C | 72% | 1008.9 hPa | 0 mm | - | 10 W/m² | - |
| 1778028590 | 28.89° C | 72% | 1008.8 hPa | 0 mm | - | 12 W/m² | - |
| 1778027984 | 29.44° C | 72% | 1008.9 hPa | 0 mm | - | 19 W/m² | - |
| 1778027681 | 29.44° C | 71% | 1008.9 hPa | 0 mm | - | 29 W/m² | - |
| 1778027377 | 29.44° C | 71% | 1008.9 hPa | 0 mm | - | 27 W/m² | - |
| 1778027073 | 29.44° C | 71% | 1008.7 hPa | 0 mm | - | 36 W/m² | - |
| 1778026466 | 30.56° C | 70% | 1008.7 hPa | 0 mm | - | 46 W/m² | - |
| 1778025861 | 30.56° C | 68% | 1008.8 hPa | 0 mm | - | 73 W/m² | - |
| 1778021622 | 31.67° C | 62% | 1008.6 hPa | 0 mm | - | 299 W/m² | - |
| 1778020712 | 31.11° C | 67% | 1008.8 hPa | 0 mm | - | 331 W/m² | - |
| 1778019195 | 29.44° C | 70% | 1008.6 hPa | 0 mm | - | 158 W/m² | - |
| 1778018892 | 29.44° C | 70% | 1008.9 hPa | 0 mm | - | 138 W/m² | - |
| 1778018589 | 30° C | 70% | 1008.8 hPa | 0 mm | - | 133 W/m² | - |
| 1778015864 | 30° C | 67% | 1009.4 hPa | 0 mm | - | 532 W/m² | - |
| 1778014652 | 30° C | 67% | 1009.7 hPa | 0 mm | - | 324 W/m² | - |
| 1778014350 | 30° C | 69% | 1009.8 hPa | 0 mm | - | 242 W/m² | - |
| 1778014046 | 30° C | 68% | 1010 hPa | 0 mm | - | 437 W/m² | - |
* Rain latest hour (hover to see other rain measurements)
** Current wind speed in m/s (hover to see current wind gust speed)